createdAt,value
2018-03-14T00:02:17.956Z,10.63
2018-03-14T00:04:47.655Z,10.38
2018-03-14T00:07:17.128Z,9.43
2018-03-14T00:09:46.475Z,8.50
2018-03-14T00:12:14.883Z,11.80
2018-03-14T00:14:44.889Z,8.90
2018-03-14T00:17:13.993Z,9.40
2018-03-14T00:19:43.095Z,9.15
2018-03-14T00:25:12.511Z,8.93
2018-03-14T00:27:41.667Z,12.40
2018-03-14T00:30:09.997Z,13.05
2018-03-14T00:32:38.363Z,9.00
2018-03-14T00:35:09.742Z,10.00
2018-03-14T00:37:38.140Z,10.85
2018-03-14T00:40:06.514Z,11.20
2018-03-14T00:42:36.860Z,13.13
2018-03-14T00:45:05.209Z,11.02
2018-03-14T00:47:33.545Z,11.85
2018-03-14T00:50:03.076Z,10.52
2018-03-14T00:52:34.433Z,11.90
2018-03-14T00:55:05.132Z,10.90
2018-03-14T00:57:33.524Z,12.65
2018-03-14T01:00:01.826Z,10.60
2018-03-14T01:02:31.893Z,10.70
2018-03-14T01:05:00.289Z,12.15
2018-03-14T01:07:28.642Z,11.38
2018-03-14T01:09:58.854Z,12.00
2018-03-14T01:12:27.623Z,12.88
2018-03-14T01:14:55.981Z,10.93
2018-03-14T01:17:26.543Z,11.52
2018-03-14T01:19:55.692Z,11.98
2018-03-14T01:22:24.147Z,13.85
2018-03-14T01:24:54.018Z,13.07
2018-03-14T01:27:23.100Z,16.02
2018-03-14T01:29:51.443Z,14.35
2018-03-14T01:32:20.236Z,15.13
2018-03-14T01:34:49.449Z,13.70
2018-03-14T01:37:20.235Z,14.07
2018-03-14T01:39:48.544Z,14.00
2018-03-14T01:42:16.874Z,18.83
2018-03-14T01:44:45.713Z,16.55
2018-03-14T01:47:14.841Z,15.57
2018-03-14T01:49:43.942Z,13.40
2018-03-14T01:52:13.344Z,13.10
2018-03-14T01:54:41.658Z,13.27
2018-03-14T01:57:10.006Z,10.98
2018-03-14T01:59:39.955Z,10.70
2018-03-14T02:02:08.314Z,14.87
2018-03-14T02:04:36.638Z,9.88
2018-03-14T02:07:05.799Z,14.40
2018-03-14T02:09:34.889Z,13.88
2018-03-14T02:12:04.003Z,11.93
2018-03-14T02:14:33.014Z,13.05
2018-03-14T02:17:01.355Z,11.45
2018-03-14T02:19:29.681Z,16.30
2018-03-14T02:21:58.445Z,15.35
2018-03-14T02:24:27.566Z,13.45
2018-03-14T02:26:55.904Z,15.82
2018-03-14T02:29:25.598Z,13.75
2018-03-14T02:31:53.953Z,11.77
2018-03-14T02:34:22.274Z,12.98
2018-03-14T02:37:03.013Z,12.30
2018-03-14T02:39:33.381Z,12.60
2018-03-14T02:42:01.703Z,13.68
2018-03-14T02:44:31.403Z,11.88
2018-03-14T02:46:59.779Z,11.60
2018-03-14T02:49:28.163Z,12.52
2018-03-14T02:51:57.724Z,12.30
2018-03-14T02:54:26.042Z,12.75
2018-03-14T02:56:54.377Z,11.63
2018-03-14T02:59:23.047Z,16.27
2018-03-14T03:01:52.160Z,12.90
2018-03-14T03:04:20.469Z,13.30
2018-03-14T03:06:50.156Z,11.95
2018-03-14T03:09:18.490Z,15.95
2018-03-14T03:11:46.864Z,12.15
2018-03-14T03:14:16.460Z,15.77
2018-03-14T03:16:44.783Z,12.82
2018-03-14T03:19:13.144Z,14.45
2018-03-14T03:21:42.154Z,16.65
2018-03-14T03:24:10.475Z,12.25
2018-03-14T03:26:42.851Z,16.00
2018-03-14T03:29:12.783Z,13.90
2018-03-14T03:31:41.112Z,17.30
2018-03-14T03:34:09.415Z,17.42
2018-03-14T03:36:39.718Z,17.12
2018-03-14T03:39:08.835Z,14.15
2018-03-14T03:41:39.978Z,18.70
2018-03-14T03:44:08.282Z,14.87
2018-03-14T03:46:36.601Z,18.00
2018-03-14T03:49:05.664Z,16.12
2018-03-14T03:51:34.716Z,16.42
2018-03-14T03:54:03.227Z,14.68
2018-03-14T03:56:33.272Z,15.80
2018-03-14T03:59:01.651Z,17.73
2018-03-14T04:01:30.720Z,17.00
2018-03-14T04:04:00.040Z,14.15
2018-03-14T04:06:29.275Z,12.75
2018-03-14T04:08:58.666Z,14.73
2018-03-14T04:11:27.687Z,14.60
2018-03-14T04:13:56.006Z,16.83
2018-03-14T04:16:24.299Z,18.55
2018-03-14T04:18:53.526Z,13.57
2018-03-14T04:21:21.821Z,17.90
2018-03-14T04:23:50.173Z,16.58
2018-03-14T04:26:20.463Z,15.95
2018-03-14T04:28:48.818Z,18.52
2018-03-14T04:31:18.853Z,17.17
2018-03-14T04:33:48.323Z,16.17
2018-03-14T04:36:16.658Z,16.60
2018-03-14T04:38:44.947Z,23.08
2018-03-14T04:41:14.296Z,16.62
2018-03-14T04:43:43.987Z,17.92
2018-03-14T04:46:13.079Z,16.37
2018-03-14T04:48:41.884Z,15.80
2018-03-14T04:51:11.036Z,16.30
2018-03-14T04:53:39.437Z,15.90
2018-03-14T04:56:08.777Z,15.02
2018-03-14T04:58:37.162Z,14.32
2018-03-14T05:01:06.481Z,14.35
2018-03-14T05:03:35.227Z,18.08
2018-03-14T05:06:03.582Z,17.67
2018-03-14T05:08:31.920Z,14.05
2018-03-14T05:11:00.691Z,15.15
2018-03-14T05:13:29.005Z,14.60
2018-03-14T05:15:58.897Z,14.87
2018-03-14T05:18:28.954Z,15.75
2018-03-14T05:20:57.300Z,16.80
2018-03-14T05:23:26.382Z,15.68
2018-03-14T05:25:55.123Z,14.75
2018-03-14T05:28:23.496Z,15.82
2018-03-14T05:30:51.839Z,18.58
2018-03-14T05:33:21.401Z,19.98
2018-03-14T05:35:50.465Z,17.90
2018-03-14T05:38:19.513Z,20.75
2018-03-14T05:40:48.791Z,19.37
2018-03-14T05:43:17.897Z,22.83
2018-03-14T05:45:47.358Z,20.90
2018-03-14T05:48:16.176Z,20.02
2018-03-14T05:50:45.276Z,23.70
2018-03-14T05:53:13.646Z,23.08
2018-03-14T05:55:43.170Z,20.33
2018-03-14T05:58:12.370Z,17.50
2018-03-14T06:00:40.683Z,19.67
2018-03-14T06:03:10.074Z,19.12
2018-03-14T06:05:39.189Z,26.37
2018-03-14T06:08:07.506Z,20.40
2018-03-14T06:10:36.248Z,20.10
2018-03-14T06:13:04.600Z,18.52
2018-03-14T06:15:33.692Z,15.32
2018-03-14T06:18:03.561Z,14.20
2018-03-14T06:20:31.906Z,9.60
2018-03-14T06:23:00.198Z,9.95
2018-03-14T06:25:29.293Z,8.63
2018-03-14T06:27:58.420Z,13.02
2018-03-14T06:30:26.724Z,14.48
2018-03-14T06:32:55.070Z,11.23
2018-03-14T06:35:25.580Z,12.95
2018-03-14T06:37:54.457Z,13.85
2018-03-14T06:40:22.739Z,12.63
2018-03-14T06:42:53.210Z,15.43
2018-03-14T06:45:24.752Z,10.40
2018-03-14T06:47:55.556Z,11.60
2018-03-14T06:50:24.266Z,13.35
2018-03-14T06:52:52.716Z,14.82
2018-03-14T06:55:25.504Z,11.10
2018-03-14T06:57:53.912Z,12.43
2018-03-14T07:00:34.616Z,12.88
2018-03-14T07:03:15.310Z,14.27
2018-03-14T07:05:55.823Z,13.70
2018-03-14T07:08:24.121Z,15.13
2018-03-14T07:10:52.436Z,17.73
2018-03-14T07:13:21.882Z,16.12
2018-03-14T07:15:50.175Z,15.73
2018-03-14T07:18:19.264Z,22.98
2018-03-14T07:20:49.340Z,16.67
2018-03-14T07:23:17.838Z,15.02
2018-03-14T07:25:46.177Z,17.30
2018-03-14T07:28:15.975Z,16.23
2018-03-14T07:30:44.278Z,15.57
2018-03-14T07:33:12.644Z,21.00
2018-03-14T07:35:41.634Z,21.55
2018-03-14T07:38:09.913Z,17.62
2018-03-14T07:40:38.385Z,15.32
2018-03-14T07:43:07.530Z,14.40
2018-03-14T07:45:35.826Z,17.92
2018-03-14T07:48:05.504Z,13.53
2018-03-14T07:50:35.851Z,13.52
2018-03-14T07:53:04.940Z,14.75
2018-03-14T07:55:33.996Z,15.35
2018-03-14T07:58:03.430Z,12.55
2018-03-14T08:00:31.723Z,17.75
2018-03-14T08:03:00.809Z,16.35
2018-03-14T08:05:30.248Z,14.43
2018-03-14T08:07:58.689Z,15.98
2018-03-14T08:10:27.051Z,13.00
2018-03-14T08:12:56.058Z,13.90
2018-03-14T08:15:24.361Z,14.15
2018-03-14T08:17:52.671Z,15.77
2018-03-14T08:20:22.276Z,12.50
2018-03-14T08:22:50.652Z,13.82
2018-03-14T08:25:18.992Z,13.52
2018-03-14T08:27:48.180Z,15.60
2018-03-14T08:30:16.592Z,15.68
2018-03-14T08:32:45.030Z,14.87
2018-03-14T08:35:14.198Z,18.15
2018-03-14T08:37:43.298Z,17.15
2018-03-14T08:40:11.776Z,13.25
2018-03-14T08:42:41.733Z,13.05
2018-03-14T08:45:11.511Z,12.65
2018-03-14T08:47:40.893Z,11.80
2018-03-14T08:50:13.985Z,11.57
2018-03-14T08:52:44.905Z,11.10
2018-03-14T08:55:13.367Z,13.18
2018-03-14T08:57:44.636Z,10.73
2018-03-14T09:00:14.091Z,10.45
2018-03-14T09:02:44.472Z,11.65
2018-03-14T09:05:12.986Z,10.90
2018-03-14T09:07:43.302Z,11.80
2018-03-14T09:10:11.740Z,10.43
2018-03-14T09:12:40.219Z,9.83
2018-03-14T09:15:09.409Z,10.57
2018-03-14T09:17:38.608Z,8.97
2018-03-14T09:20:06.988Z,11.30
2018-03-14T09:22:35.921Z,10.57
2018-03-14T09:25:04.206Z,10.60
2018-03-14T09:27:33.483Z,10.03
2018-03-14T09:30:03.400Z,10.40
2018-03-14T09:32:31.800Z,10.33
2018-03-14T09:35:00.254Z,9.97
2018-03-14T09:37:28.974Z,9.70
2018-03-14T09:39:58.114Z,11.33
2018-03-14T09:42:26.987Z,9.90
2018-03-14T09:44:57.595Z,11.70
2018-03-14T09:47:26.779Z,11.87
2018-03-14T09:49:55.172Z,10.17
2018-03-14T09:52:24.721Z,10.43
2018-03-14T09:54:54.797Z,10.80
2018-03-14T09:57:23.103Z,9.77
2018-03-14T09:59:54.459Z,10.37
2018-03-14T10:02:23.536Z,13.27
2018-03-14T10:04:51.829Z,12.17
2018-03-14T10:07:21.143Z,9.80
2018-03-14T10:09:50.158Z,13.17
2018-03-14T10:12:18.967Z,11.70
2018-03-14T10:14:48.522Z,11.20
2018-03-14T10:17:19.028Z,13.93
2018-03-14T10:19:47.461Z,11.10
2018-03-14T10:22:17.242Z,9.90
2018-03-14T10:24:45.540Z,10.20
2018-03-14T10:27:14.616Z,12.03
2018-03-14T10:29:44.257Z,9.90
2018-03-14T10:32:13.874Z,9.67
2018-03-14T10:34:42.447Z,12.10
2018-03-14T10:37:11.825Z,13.00
2018-03-14T10:39:40.093Z,10.80
2018-03-14T10:42:08.420Z,11.50
2018-03-14T10:44:38.344Z,10.00
2018-03-14T10:47:06.641Z,10.80
2018-03-14T10:49:35.769Z,9.60
2018-03-14T10:52:05.167Z,9.73
2018-03-14T10:54:33.502Z,10.83
2018-03-14T10:57:03.044Z,11.43
2018-03-14T10:59:33.241Z,12.93
2018-03-14T11:02:07.634Z,10.00
2018-03-14T11:04:36.326Z,10.00
2018-03-14T11:07:04.627Z,8.83
2018-03-14T11:09:32.928Z,12.83
2018-03-14T11:12:02.742Z,14.23
2018-03-14T11:14:31.791Z,10.40
2018-03-14T11:17:00.065Z,8.43
2018-03-14T11:19:29.689Z,9.73
2018-03-14T11:21:57.986Z,11.43
2018-03-14T11:24:26.374Z,8.80
2018-03-14T11:26:55.813Z,8.53
2018-03-14T11:29:24.861Z,12.20
2018-03-14T11:31:53.156Z,8.50
2018-03-14T11:34:22.773Z,10.13
2018-03-14T11:36:51.129Z,9.53
2018-03-14T11:39:20.179Z,8.67
2018-03-14T11:41:52.227Z,8.60
2018-03-14T11:44:20.538Z,12.10
2018-03-14T11:46:49.581Z,7.03
2018-03-14T11:49:19.866Z,8.07
2018-03-14T11:51:48.945Z,8.03
2018-03-14T11:54:17.259Z,8.90
2018-03-14T11:56:46.418Z,7.87
2018-03-14T11:59:16.435Z,7.17
2018-03-14T12:01:45.508Z,8.63
2018-03-14T12:04:14.810Z,7.30
2018-03-14T12:06:43.115Z,7.53
2018-03-14T12:09:11.408Z,6.50
2018-03-14T12:11:41.161Z,6.37
2018-03-14T12:14:09.466Z,7.77
2018-03-14T12:16:37.762Z,8.27
2018-03-14T12:19:07.187Z,11.20
2018-03-14T12:21:35.473Z,8.30
2018-03-14T12:24:03.770Z,9.00
2018-03-14T12:26:33.713Z,10.60
2018-03-14T12:29:02.006Z,8.83
2018-03-14T12:31:30.290Z,7.50
2018-03-14T12:33:59.652Z,7.73
2018-03-14T12:36:27.933Z,9.00
2018-03-14T12:38:56.200Z,8.47
2018-03-14T12:41:25.822Z,7.93
2018-03-14T12:43:54.909Z,8.80
2018-03-14T12:46:23.184Z,7.47
2018-03-14T12:48:52.406Z,14.43
2018-03-14T12:51:20.702Z,8.47
2018-03-14T12:53:49.745Z,7.13
2018-03-14T12:56:19.827Z,6.20
2018-03-14T12:58:48.237Z,8.00
2018-03-14T13:01:17.946Z,6.30
2018-03-14T13:03:47.079Z,6.10
2018-03-14T13:06:16.344Z,5.70
2018-03-14T13:08:45.620Z,5.67
2018-03-14T13:11:15.446Z,6.63
2018-03-14T13:13:44.562Z,6.43
2018-03-14T13:16:12.847Z,6.50
2018-03-14T13:18:42.304Z,6.40
2018-03-14T13:21:10.634Z,6.67
2018-03-14T13:23:38.922Z,6.47
2018-03-14T13:26:08.677Z,6.13
2018-03-14T13:28:36.996Z,5.80
2018-03-14T13:31:05.291Z,5.47
2018-03-14T13:33:34.470Z,5.97
2018-03-14T13:36:02.760Z,5.90
2018-03-14T13:38:31.337Z,5.70
2018-03-14T13:41:00.743Z,7.57
2018-03-14T13:45:52.688Z,5.80
2018-03-14T13:48:21.876Z,6.30
2018-03-14T13:50:50.179Z,5.47
2018-03-14T13:53:18.490Z,5.97
2018-03-14T13:55:48.081Z,5.53
2018-03-14T13:58:17.197Z,6.00
2018-03-14T14:00:46.246Z,6.43
2018-03-14T14:03:17.221Z,6.00
2018-03-14T14:05:45.599Z,6.80
2018-03-14T14:08:14.650Z,6.27
2018-03-14T14:10:45.005Z,5.40
2018-03-14T14:13:13.313Z,5.80
2018-03-14T14:15:42.357Z,5.80
2018-03-14T14:18:11.487Z,6.33
2018-03-14T14:20:39.773Z,7.10
2018-03-14T14:23:08.092Z,5.70
2018-03-14T14:25:39.295Z,7.10
2018-03-14T14:28:07.710Z,5.93
2018-03-14T14:30:37.240Z,7.07
2018-03-14T14:33:06.714Z,6.27
2018-03-14T14:35:35.006Z,6.80
2018-03-14T14:38:04.083Z,6.70
2018-03-14T14:40:34.112Z,6.30
2018-03-14T14:43:02.451Z,6.47
2018-03-14T14:45:30.765Z,6.20
2018-03-14T14:47:59.998Z,7.80
2018-03-14T14:50:29.050Z,6.57
2018-03-14T14:52:57.357Z,7.67
2018-03-14T14:55:27.273Z,7.63
2018-03-14T14:57:55.553Z,7.53
2018-03-14T15:00:23.879Z,6.17
2018-03-14T15:02:53.283Z,6.13
2018-03-14T15:05:23.039Z,8.40
2018-03-14T15:07:51.377Z,6.97
2018-03-14T15:10:21.271Z,6.70
2018-03-14T15:12:50.339Z,6.77
2018-03-14T15:15:18.675Z,7.20
2018-03-14T15:17:47.869Z,6.40
2018-03-14T15:20:16.180Z,8.43
2018-03-14T15:22:44.498Z,7.43
2018-03-14T15:25:14.086Z,6.70
2018-03-14T15:27:42.434Z,6.80
2018-03-14T15:30:10.818Z,9.27
2018-03-14T15:32:40.204Z,10.20
2018-03-14T15:35:09.269Z,6.37
2018-03-14T15:37:37.581Z,7.50
2018-03-14T15:40:06.908Z,7.43
2018-03-14T15:42:35.976Z,6.80
2018-03-14T15:45:04.274Z,6.83
2018-03-14T15:47:33.965Z,6.77
2018-03-14T15:50:02.275Z,6.93
2018-03-14T15:52:31.371Z,7.90
2018-03-14T15:55:00.855Z,8.47
2018-03-14T15:57:30.038Z,6.17
2018-03-14T15:59:58.332Z,7.33
2018-03-14T16:02:27.734Z,7.90
2018-03-14T16:04:56.864Z,6.67
2018-03-14T16:07:26.550Z,5.27
2018-03-14T16:09:55.741Z,6.53
2018-03-14T16:12:24.019Z,7.10
2018-03-14T16:14:52.332Z,6.83
2018-03-14T16:17:21.498Z,8.30
2018-03-14T16:19:50.166Z,6.37
2018-03-14T16:22:18.472Z,7.37
2018-03-14T16:24:47.590Z,8.80
2018-03-14T16:27:15.909Z,11.80
2018-03-14T16:29:44.195Z,10.30
2018-03-14T16:32:13.312Z,6.97
2018-03-14T16:34:41.596Z,7.87
2018-03-14T16:37:09.902Z,8.40
2018-03-14T16:39:38.932Z,6.90
2018-03-14T16:42:07.227Z,7.27
2018-03-14T16:44:36.299Z,11.60
2018-03-14T16:47:10.628Z,10.20
2018-03-14T16:49:38.936Z,9.53
2018-03-14T16:52:08.376Z,8.43
2018-03-14T16:54:36.668Z,10.00
2018-03-14T16:57:04.951Z,8.80
2018-03-14T16:59:34.322Z,12.47
2018-03-14T17:02:02.615Z,8.67
2018-03-14T17:04:30.884Z,11.90
2018-03-14T17:07:00.263Z,9.87
2018-03-14T17:09:30.651Z,10.90
2018-03-14T17:11:59.611Z,10.17
2018-03-14T17:14:27.884Z,13.83
2018-03-14T17:16:56.193Z,8.80
2018-03-14T17:19:25.323Z,13.17
2018-03-14T17:21:53.615Z,10.73
2018-03-14T17:24:22.003Z,12.90
2018-03-14T17:26:51.304Z,12.50
2018-03-14T17:29:19.604Z,13.73
2018-03-14T17:31:47.899Z,9.50
2018-03-14T17:34:17.227Z,11.73
2018-03-14T17:36:45.539Z,12.02
2018-03-14T17:39:13.836Z,16.63
2018-03-14T17:41:43.479Z,14.87
2018-03-14T17:44:11.819Z,12.68
2018-03-14T17:46:40.134Z,12.63
2018-03-14T17:49:10.272Z,14.25
2018-03-14T17:51:38.639Z,12.77
2018-03-14T17:54:06.967Z,10.90
2018-03-14T17:56:35.946Z,10.38
2018-03-14T17:59:04.240Z,11.82
2018-03-14T18:01:32.546Z,12.63
2018-03-14T18:04:01.750Z,16.30
2018-03-14T18:06:30.069Z,14.80
2018-03-14T18:08:59.760Z,17.60
2018-03-14T18:11:30.632Z,14.38
2018-03-14T18:13:59.984Z,15.82
2018-03-14T18:16:28.299Z,20.60
2018-03-14T18:18:56.620Z,11.68
2018-03-14T18:21:25.664Z,12.52
2018-03-14T18:23:53.971Z,11.82
2018-03-14T18:26:23.031Z,18.23
2018-03-14T18:28:51.754Z,23.25
2018-03-14T18:31:20.831Z,17.35
2018-03-14T18:33:49.928Z,14.65
2018-03-14T18:36:19.446Z,16.60
2018-03-14T18:38:48.529Z,14.82
2018-03-14T18:41:16.820Z,16.60
2018-03-14T18:43:46.956Z,20.23
2018-03-14T18:46:16.027Z,22.08
2018-03-14T18:48:44.340Z,18.08
2018-03-14T18:51:13.831Z,20.12
2018-03-14T18:53:42.137Z,20.05
2018-03-14T18:56:10.466Z,23.25
2018-03-14T18:58:39.500Z,23.98
2018-03-14T19:01:07.875Z,24.00
2018-03-14T19:03:36.238Z,24.58
2018-03-14T19:06:05.724Z,22.48
2018-03-14T19:08:34.237Z,18.27
2018-03-14T19:11:03.758Z,20.33
2018-03-14T19:13:33.879Z,21.60
2018-03-14T19:16:02.227Z,22.65
2018-03-14T19:18:30.546Z,23.52
2018-03-14T19:21:00.308Z,27.58
2018-03-14T19:23:28.615Z,25.62
2018-03-14T19:25:57.015Z,23.77
2018-03-14T19:28:26.491Z,24.77
2018-03-14T19:30:54.827Z,21.25
2018-03-14T19:33:23.970Z,20.90
2018-03-14T19:35:52.931Z,23.17
2018-03-14T19:38:21.227Z,27.45
2018-03-14T19:40:50.273Z,26.17
2018-03-14T19:43:19.393Z,27.73
2018-03-14T19:45:47.677Z,29.42
2018-03-14T19:48:16.001Z,20.73
2018-03-14T19:50:45.566Z,28.33
2018-03-14T19:53:14.651Z,30.37
2018-03-14T19:55:42.990Z,25.35
2018-03-14T19:58:12.618Z,28.55
2018-03-14T20:00:41.048Z,28.87
2018-03-14T20:03:09.336Z,28.60
2018-03-14T20:05:39.133Z,26.60
2018-03-14T20:08:07.456Z,27.65
2018-03-14T20:10:35.778Z,28.05
2018-03-14T20:13:04.786Z,29.30
2018-03-14T20:15:34.727Z,26.60
2018-03-14T20:18:03.053Z,27.83
2018-03-14T20:20:33.056Z,32.08
2018-03-14T20:23:01.601Z,33.38
2018-03-14T20:25:30.091Z,30.23
2018-03-14T20:27:59.202Z,30.40
2018-03-14T20:30:27.552Z,29.35
2018-03-14T20:32:55.906Z,29.55
2018-03-14T20:35:24.973Z,30.15
2018-03-14T20:37:54.104Z,35.30
2018-03-14T20:40:24.013Z,32.65
2018-03-14T20:42:53.904Z,31.50
2018-03-14T20:45:22.247Z,34.53
2018-03-14T20:47:51.357Z,34.25
2018-03-14T20:50:20.118Z,32.60
2018-03-14T20:52:48.551Z,35.30
2018-03-14T20:55:16.863Z,40.15
2018-03-14T20:57:46.709Z,37.90
2018-03-14T21:00:15.236Z,43.90
2018-03-14T21:02:43.708Z,44.17
2018-03-14T21:05:14.382Z,38.30
2018-03-14T21:07:42.731Z,39.75
2018-03-14T21:10:11.264Z,44.55
2018-03-14T21:12:40.672Z,45.75
2018-03-14T21:15:09.993Z,54.75
2018-03-14T21:17:39.780Z,46.10
2018-03-14T21:20:09.348Z,50.45
2018-03-14T21:22:37.680Z,60.75
2018-03-14T21:25:06.039Z,57.00
2018-03-14T21:29:58.139Z,61.88
2018-03-14T21:32:26.641Z,60.63
2018-03-14T21:34:55.186Z,75.22
2018-03-14T21:37:24.227Z,69.10
2018-03-14T21:39:52.541Z,63.00
2018-03-14T21:42:22.052Z,64.32
2018-03-14T21:44:51.007Z,58.08
2018-03-14T21:47:19.383Z,64.50
2018-03-14T21:49:47.811Z,66.82
2018-03-14T21:52:16.518Z,71.65
2018-03-14T21:54:45.665Z,61.28
2018-03-14T21:57:19.515Z,71.97
2018-03-14T21:59:48.154Z,67.18
2018-03-14T22:02:17.269Z,66.95
2018-03-14T22:04:47.530Z,60.78
2018-03-14T22:07:15.875Z,62.97
2018-03-14T22:09:44.199Z,73.40
2018-03-14T22:12:13.907Z,77.20
2018-03-14T22:14:44.247Z,80.10
2018-03-14T22:17:12.645Z,86.70
2018-03-14T22:19:42.997Z,90.80
2018-03-14T22:22:11.361Z,87.62
2018-03-14T22:24:39.660Z,75.62
2018-03-14T22:27:08.817Z,92.43
2018-03-14T22:29:38.721Z,72.90
2018-03-14T22:32:07.352Z,88.20
2018-03-14T22:34:36.743Z,81.40
2018-03-14T22:37:05.903Z,89.70
2018-03-14T22:39:35.219Z,89.70
2018-03-14T22:42:04.229Z,93.85
2018-03-14T22:44:33.346Z,96.35
2018-03-14T22:47:03.163Z,106.90
2018-03-14T22:49:32.094Z,85.60
2018-03-14T22:52:01.429Z,90.20
2018-03-14T22:54:30.527Z,102.40
2018-03-14T22:56:59.980Z,115.93
2018-03-14T22:59:29.026Z,99.40
2018-03-14T23:01:57.339Z,100.20
2018-03-14T23:04:27.231Z,94.30
2018-03-14T23:07:12.393Z,86.65
2018-03-14T23:09:41.509Z,77.60
2018-03-14T23:12:09.883Z,72.93
2018-03-14T23:14:38.208Z,91.28
2018-03-14T23:17:08.076Z,105.85
2018-03-14T23:19:36.418Z,90.20
2018-03-14T23:22:06.185Z,87.47
2018-03-14T23:24:35.556Z,72.65
2018-03-14T23:27:04.126Z,79.45
2018-03-14T23:29:32.450Z,94.60
2018-03-14T23:32:01.914Z,102.93
2018-03-14T23:34:30.275Z,103.47
2018-03-14T23:36:59.393Z,97.03
2018-03-14T23:39:28.946Z,79.75
2018-03-14T23:41:57.260Z,91.37
2018-03-14T23:44:25.608Z,89.82
2018-03-14T23:46:54.395Z,86.65
2018-03-14T23:49:22.735Z,91.57
2018-03-14T23:51:51.815Z,90.82
2018-03-14T23:54:21.164Z,78.10
2018-03-14T23:56:49.527Z,84.68
2018-03-14T23:59:17.863Z,81.45
